ICT,Max TemperatureF,Mean TemperatureF,Min TemperatureF,Max Dew PointF,MeanDew PointF,Min DewpointF,Max Humidity, Mean Humidity, Min Humidity, Max Sea Level PressureIn, Mean Sea Level PressureIn, Min Sea Level PressureIn, Max VisibilityMiles, Mean VisibilityMiles, Min VisibilityMiles, Max Wind SpeedMPH, Mean Wind SpeedMPH, Max Gust SpeedMPH,PrecipitationIn, CloudCover, Events, WindDirDegrees
2013-10-1,89,82,76,75,72,68,84,71,61,29.83,29.74,29.68,9,6,5,12,6,,0.00,6,,216
2013-10-2,90,83,76,77,74,72,89,76,58,29.89,29.83,29.74,7,6,1,16,5,28,0.35,6,Rain-Thunderstorm,11
2013-10-3,86,80,75,77,73,72,89,79,66,29.92,29.84,29.77,6,6,2,12,5,20,0.24,6,Rain-Thunderstorm,344
2013-10-4,86,79,72,77,73,70,95,76,58,29.89,29.81,29.74,7,6,3,15,7,32,1.65,6,Rain-Thunderstorm,314
2013-10-5,88,80,73,78,73,70,96,77,62,29.83,29.76,29.68,6,5,2,12,6,23,1.65,7,Rain-Thunderstorm,163
2013-10-6,84,80,76,78,74,72,94,81,58,29.80,29.74,29.68,6,4,2,13,6,24,0.87,6,Rain-Thunderstorm,40
2013-10-7,85,80,74,76,73,72,95,80,66,29.83,29.77,29.71,6,6,3,14,9,22,0.12,6,Rain-Thunderstorm,94
2013-10-8,86,80,75,75,71,63,92,72,43,29.89,29.82,29.74,6,6,3,17,8,,0.28,6,Rain,107
2013-10-9,87,80,72,76,71,66,93,71,51,29.89,29.85,29.80,6,5,3,8,4,,0.00,6,Rain,148
2013-10-10,90,81,72,77,74,70,87,74,55,29.92,29.86,29.80,7,5,2,9,3,,0.00,6,,201
2013-10-11,93,86,78,78,74,66,87,69,43,29.92,29.84,29.74,6,5,4,9,3,,0.00,6,Rain,93
2013-10-12,92,84,76,77,73,68,89,67,46,29.86,29.80,29.71,7,4,1,12,3,,0.00,5,,358
2013-10-13,95,86,78,78,73,68,83,65,41,29.86,29.79,29.71,6,6,3,9,3,,0.04,4,,356
2013-10-14,92,84,77,78,75,72,84,70,52,29.83,29.75,29.68,6,6,4,12,4,,0.04,5,Rain,224
2013-10-15,93,86,80,79,74,70,84,68,46,29.80,29.74,29.65,6,6,3,10,5,,0.00,6,Rain,295
2013-10-16,84,79,74,76,74,72,95,86,74,29.83,29.76,29.68,6,4,0,20,6,38,2.83,6,Rain-Thunderstorm,199
2013-10-17,90,82,75,77,74,73,94,80,70,29.89,29.83,29.77,6,5,3,12,7,21,0.79,6,Rain-Thunderstorm,123
2013-10-18,89,82,74,77,74,70,91,75,49,29.92,29.86,29.77,7,6,3,10,4,,0.02,6,Rain-Thunderstorm,100
2013-10-19,85,80,75,77,73,70,91,78,66,29.98,29.90,29.86,6,6,4,15,6,,0.00,6,Rain-Thunderstorm,65
2013-10-20,91,83,75,76,74,72,89,73,50,29.95,29.87,29.80,6,6,3,9,5,,0.03,5,Rain,27
2013-10-21,91,84,77,76,73,70,83,69,52,29.92,29.84,29.77,6,6,5,13,6,,0.00,6,Rain,84
2013-10-22,94,86,77,75,73,72,84,70,45,29.95,29.88,29.80,6,6,5,12,5,,0.12,5,Rain-Thunderstorm,66
2013-10-23,93,86,78,76,72,68,83,66,45,29.95,29.88,29.80,6,6,5,13,5,,0.00,6,,64
2013-10-24,93,85,77,75,71,66,83,64,39,29.95,29.87,29.77,6,6,5,10,5,20,0.00,4,,81
2013-10-25,93,86,80,76,71,68,74,63,40,29.95,29.88,29.80,6,6,5,12,8,23,0.00,4,,82
2013-10-26,91,83,75,71,67,61,78,60,42,30.01,29.92,29.86,6,5,3,13,7,,0.00,3,,46
2013-10-27,91,82,74,72,68,66,78,62,42,29.98,29.91,29.83,6,5,3,10,6,,0.00,4,,59
2013-10-28,91,83,75,75,70,68,78,63,49,29.98,29.91,29.83,6,5,4,12,6,,0.00,5,,108
2013-10-29,92,84,77,76,72,68,89,68,46,29.98,29.93,29.86,6,5,2,9,5,,0.00,6,Rain-Thunderstorm,125
2013-10-30,94,86,77,76,71,64,90,63,40,29.98,29.90,29.83,6,5,2,12,4,24,0.00,4,,20
2013-10-31,95,86,78,76,72,68,84,62,41,29.95,29.88,29.80,6,5,3,9,4,,0.01,5,Rain,71